createdAt,value
2018-01-21T00:01:11.069Z,42.53
2018-01-21T00:03:37.405Z,34.17
2018-01-21T00:06:03.801Z,32.53
2018-01-21T00:08:31.001Z,30.50
2018-01-21T00:10:57.376Z,38.03
2018-01-21T00:13:24.553Z,32.43
2018-01-21T00:15:51.399Z,35.27
2018-01-21T00:18:17.715Z,30.73
2018-01-21T00:20:44.120Z,31.50
2018-01-21T00:23:10.584Z,34.77
2018-01-21T00:25:37.014Z,35.53
2018-01-21T00:28:03.450Z,34.33
2018-01-21T00:30:30.205Z,34.97
2018-01-21T00:32:57.379Z,33.10
2018-01-21T00:35:24.456Z,32.80
2018-01-21T00:37:51.606Z,32.90
2018-01-21T00:40:17.959Z,33.73
2018-01-21T00:42:44.315Z,33.40
2018-01-21T00:45:10.686Z,35.20
2018-01-21T00:47:37.034Z,31.33
2018-01-21T00:50:03.417Z,33.63
2018-01-21T00:52:29.853Z,34.67
2018-01-21T00:54:56.226Z,34.50
2018-01-21T00:57:23.311Z,33.00
2018-01-21T00:59:49.868Z,33.00
2018-01-21T01:02:16.667Z,34.47
2018-01-21T01:04:43.007Z,30.30
2018-01-21T01:07:09.380Z,32.27
2018-01-21T01:09:35.758Z,31.60
2018-01-21T01:12:02.360Z,28.07
2018-01-21T01:14:29.871Z,31.27
2018-01-21T01:16:56.679Z,30.47
2018-01-21T01:19:23.815Z,30.60
2018-01-21T01:21:50.234Z,31.27
2018-01-21T01:24:16.657Z,29.17
2018-01-21T01:26:43.068Z,27.87
2018-01-21T01:29:09.520Z,30.53
2018-01-21T01:31:36.670Z,28.80
2018-01-21T01:34:03.155Z,28.47
2018-01-21T01:36:30.449Z,28.07
2018-01-21T01:38:56.971Z,27.47
2018-01-21T01:41:23.565Z,30.20
2018-01-21T01:43:50.106Z,28.30
2018-01-21T01:46:16.648Z,30.20
2018-01-21T01:48:54.388Z,31.00
2018-01-21T01:51:21.364Z,32.07
2018-01-21T01:53:48.265Z,30.27
2018-01-21T01:56:14.706Z,29.00
2018-01-21T01:58:41.108Z,31.00
2018-01-21T02:01:07.461Z,29.37
2018-01-21T02:03:34.974Z,27.90
2018-01-21T02:06:01.389Z,31.10
2018-01-21T02:08:27.803Z,29.30
2018-01-21T02:10:54.229Z,30.63
2018-01-21T02:13:20.698Z,29.03
2018-01-21T02:15:47.156Z,31.37
2018-01-21T02:18:14.027Z,27.23
2018-01-21T02:20:41.080Z,31.67
2018-01-21T02:23:08.131Z,30.33
2018-01-21T02:25:34.517Z,30.73
2018-01-21T02:28:01.584Z,29.20
2018-01-21T02:30:28.710Z,28.90
2018-01-21T02:32:56.319Z,28.70
2018-01-21T02:35:22.634Z,29.73
2018-01-21T02:37:49.032Z,29.20
2018-01-21T02:40:15.400Z,29.60
2018-01-21T02:42:42.432Z,29.30
2018-01-21T02:45:08.752Z,29.73
2018-01-21T02:47:35.153Z,32.90
2018-01-21T02:50:01.599Z,28.83
2018-01-21T02:52:27.942Z,28.67
2018-01-21T02:54:55.147Z,29.70
2018-01-21T02:57:21.536Z,28.03
2018-01-21T02:59:47.954Z,30.00
2018-01-21T03:02:14.539Z,29.83
2018-01-21T03:04:40.991Z,29.93
2018-01-21T03:07:07.434Z,28.30
2018-01-21T03:09:33.803Z,28.80
2018-01-21T03:12:00.162Z,29.70
2018-01-21T03:14:26.504Z,28.20
2018-01-21T03:16:52.891Z,29.70
2018-01-21T03:19:19.332Z,29.23
2018-01-21T03:21:45.679Z,32.30
2018-01-21T03:24:12.086Z,31.27
2018-01-21T03:26:39.300Z,31.60
2018-01-21T03:29:07.249Z,32.33
2018-01-21T03:31:34.530Z,29.93
2018-01-21T03:34:00.812Z,29.57
2018-01-21T03:36:27.425Z,29.30
2018-01-21T03:38:54.264Z,30.70
2018-01-21T03:41:20.828Z,30.37
2018-01-21T03:43:47.407Z,32.83
2018-01-21T03:46:13.951Z,31.67
2018-01-21T03:48:40.905Z,31.73
2018-01-21T03:51:07.352Z,34.33
2018-01-21T03:53:33.739Z,32.17
2018-01-21T03:56:00.901Z,35.50
2018-01-21T03:58:28.754Z,35.13
2018-01-21T04:00:55.155Z,31.90
2018-01-21T04:03:21.528Z,33.17
2018-01-21T04:05:49.024Z,34.30
2018-01-21T04:08:15.468Z,33.27
2018-01-21T04:10:42.205Z,32.20
2018-01-21T04:13:09.304Z,32.33
2018-01-21T04:15:35.667Z,32.50
2018-01-21T04:18:03.123Z,31.87
2018-01-21T04:20:38.504Z,31.30
2018-01-21T04:23:09.235Z,31.60
2018-01-21T04:25:35.631Z,32.10
2018-01-21T04:28:03.723Z,36.03
2018-01-21T04:30:30.112Z,31.90
2018-01-21T04:32:56.776Z,30.27
2018-01-21T04:35:23.174Z,33.37
2018-01-21T04:37:49.551Z,29.40
2018-01-21T04:40:15.929Z,30.43
2018-01-21T04:42:42.407Z,33.57
2018-01-21T04:45:15.661Z,32.83
2018-01-21T04:47:42.820Z,32.70
2018-01-21T04:50:10.743Z,36.00
2018-01-21T04:52:37.114Z,32.80
2018-01-21T04:55:03.899Z,31.87
2018-01-21T04:57:30.395Z,32.13
2018-01-21T04:59:57.056Z,27.93
2018-01-21T05:02:23.591Z,32.40
2018-01-21T05:04:50.507Z,31.60
2018-01-21T05:07:17.769Z,31.83
2018-01-21T05:09:44.535Z,30.50
2018-01-21T05:12:10.935Z,30.30
2018-01-21T05:14:38.065Z,30.90
2018-01-21T05:17:04.490Z,29.93
2018-01-21T05:19:31.935Z,30.37
2018-01-21T05:21:59.002Z,31.53
2018-01-21T05:24:25.457Z,30.90
2018-01-21T05:26:51.864Z,29.80
2018-01-21T05:29:18.299Z,31.60
2018-01-21T05:31:45.074Z,31.97
2018-01-21T05:34:11.813Z,29.77
2018-01-21T05:36:39.705Z,28.63
2018-01-21T05:39:06.885Z,28.90
2018-01-21T05:41:33.242Z,29.10
2018-01-21T05:43:59.556Z,27.37
2018-01-21T05:46:26.878Z,27.70
2018-01-21T05:48:53.467Z,28.30
2018-01-21T05:51:20.328Z,29.37
2018-01-21T05:53:48.458Z,29.50
2018-01-21T05:56:15.343Z,26.17
2018-01-21T05:58:43.355Z,29.77
2018-01-21T06:01:10.269Z,26.83
2018-01-21T06:03:37.406Z,28.73
2018-01-21T06:06:04.513Z,28.53
2018-01-21T06:08:30.949Z,28.43
2018-01-21T06:10:57.579Z,30.37
2018-01-21T06:13:24.309Z,27.33
2018-01-21T06:15:50.779Z,28.80
2018-01-21T06:18:17.995Z,26.13
2018-01-21T06:20:44.360Z,28.17
2018-01-21T06:23:10.777Z,30.00
2018-01-21T06:25:38.661Z,29.97
2018-01-21T06:28:05.066Z,30.57
2018-01-21T06:30:31.660Z,28.87
2018-01-21T06:32:58.034Z,30.63
2018-01-21T06:35:25.029Z,28.80
2018-01-21T06:37:51.545Z,28.10
2018-01-21T06:40:17.994Z,27.33
2018-01-21T06:42:46.122Z,32.60
2018-01-21T06:45:12.581Z,28.37
2018-01-21T06:47:39.705Z,29.10
2018-01-21T06:50:06.067Z,29.47
2018-01-21T06:52:33.195Z,32.97
2018-01-21T06:54:59.627Z,28.10
2018-01-21T06:57:26.068Z,28.77
2018-01-21T06:59:52.464Z,26.87
2018-01-21T07:02:18.950Z,31.13
2018-01-21T07:04:45.301Z,29.50
2018-01-21T07:07:11.814Z,28.73
2018-01-21T07:09:38.758Z,28.77
2018-01-21T07:12:05.120Z,30.03
2018-01-21T07:14:31.553Z,28.23
2018-01-21T07:16:57.925Z,27.67
2018-01-21T07:19:24.314Z,28.60
2018-01-21T07:21:50.726Z,26.03
2018-01-21T07:24:17.116Z,27.77
2018-01-21T07:26:43.556Z,27.43
2018-01-21T07:29:09.975Z,28.40
2018-01-21T07:31:37.475Z,27.10
2018-01-21T07:34:03.982Z,27.60
2018-01-21T07:36:30.552Z,28.80
2018-01-21T07:38:57.803Z,27.50
2018-01-21T07:41:25.238Z,28.63
2018-01-21T07:43:51.717Z,29.77
2018-01-21T07:46:18.363Z,26.60
2018-01-21T07:48:44.776Z,27.63
2018-01-21T07:51:11.218Z,28.10
2018-01-21T07:53:39.578Z,28.57
2018-01-21T07:56:06.058Z,29.43
2018-01-21T07:58:32.763Z,32.57
2018-01-21T08:01:00.700Z,30.20
2018-01-21T08:03:27.892Z,28.70
2018-01-21T08:05:54.415Z,29.63
2018-01-21T08:08:20.905Z,29.33
2018-01-21T08:10:48.353Z,30.63
2018-01-21T08:13:14.884Z,29.13
2018-01-21T08:15:41.302Z,29.70
2018-01-21T08:18:07.796Z,28.80
2018-01-21T08:20:35.017Z,27.00
2018-01-21T08:23:01.770Z,30.07
2018-01-21T08:25:28.177Z,30.50
2018-01-21T08:27:55.060Z,29.00
2018-01-21T08:30:22.201Z,28.47
2018-01-21T08:32:49.320Z,26.87
2018-01-21T08:35:21.976Z,28.23
2018-01-21T08:37:54.352Z,26.77
2018-01-21T08:40:26.759Z,26.83
2018-01-21T08:42:53.285Z,29.00
2018-01-21T08:45:21.377Z,28.30
2018-01-21T08:47:48.181Z,27.00
2018-01-21T08:50:14.632Z,25.13
2018-01-21T08:52:41.932Z,28.83
2018-01-21T08:55:08.322Z,26.60
2018-01-21T08:57:34.684Z,26.57
2018-01-21T09:00:01.851Z,25.13
2018-01-21T09:02:28.382Z,27.80
2018-01-21T09:04:55.154Z,25.40
2018-01-21T09:07:21.852Z,25.33
2018-01-21T09:35:41.525Z,23.40
2018-01-21T09:40:43.553Z,24.40
2018-01-21T09:43:10.479Z,24.40
2018-01-21T09:45:37.309Z,23.77
2018-01-21T09:48:04.557Z,25.07
2018-01-21T09:50:31.379Z,23.17
2018-01-21T09:52:58.908Z,23.50
2018-01-21T09:55:25.388Z,23.17
2018-01-21T09:57:51.941Z,22.67
2018-01-21T10:00:18.445Z,23.47
2018-01-21T10:02:46.058Z,23.90
2018-01-21T10:05:13.413Z,24.07
2018-01-21T10:07:40.765Z,22.10
2018-01-21T10:10:08.695Z,25.43
2018-01-21T10:12:35.166Z,26.57
2018-01-21T10:15:02.799Z,24.10
2018-01-21T10:17:29.617Z,23.93
2018-01-21T10:19:56.318Z,23.77
2018-01-21T10:22:23.974Z,25.67
2018-01-21T10:24:50.499Z,24.50
2018-01-21T10:27:17.447Z,23.90
2018-01-21T10:29:43.941Z,24.63
2018-01-21T10:32:11.691Z,23.27
2018-01-21T10:34:38.269Z,23.90
2018-01-21T10:37:11.721Z,25.50
2018-01-21T10:39:38.363Z,25.60
2018-01-21T10:42:05.105Z,24.90
2018-01-21T10:44:32.758Z,25.00
2018-01-21T10:46:59.212Z,23.27
2018-01-21T10:49:26.308Z,25.50
2018-01-21T10:51:53.041Z,27.13
2018-01-21T10:54:20.212Z,26.77
2018-01-21T10:56:47.062Z,23.87
2018-01-21T10:59:15.456Z,22.90
2018-01-21T11:01:42.097Z,20.27
2018-01-21T11:04:08.588Z,19.90
2018-01-21T11:06:36.628Z,19.83
2018-01-21T11:09:03.484Z,22.00
2018-01-21T11:11:29.984Z,19.93
2018-01-21T11:13:58.279Z,18.87
2018-01-21T11:16:24.752Z,19.27
2018-01-21T11:18:51.287Z,21.23
2018-01-21T11:21:18.770Z,19.20
2018-01-21T11:23:45.211Z,19.73
2018-01-21T11:26:11.639Z,18.80
2018-01-21T11:28:39.048Z,19.00
2018-01-21T11:31:05.529Z,17.70
2018-01-21T11:33:33.703Z,18.80
2018-01-21T11:36:00.592Z,20.97
2018-01-21T11:38:28.283Z,20.70
2018-01-21T11:40:55.562Z,19.00
2018-01-21T11:43:22.579Z,18.10
2018-01-21T11:45:50.121Z,19.90
2018-01-21T11:48:16.983Z,17.23
2018-01-21T11:50:43.431Z,18.43
2018-01-21T11:53:09.946Z,19.57
2018-01-21T11:55:36.845Z,20.03
2018-01-21T11:58:05.555Z,19.77
2018-01-21T12:00:32.847Z,20.07
2018-01-21T12:02:59.738Z,19.93
2018-01-21T12:05:32.301Z,19.17
2018-01-21T12:08:00.016Z,20.17
2018-01-21T12:10:27.005Z,20.93
2018-01-21T12:12:53.881Z,20.50
2018-01-21T12:15:20.657Z,19.40
2018-01-21T12:17:47.913Z,18.47
2018-01-21T12:20:15.400Z,22.03
2018-01-21T12:22:42.586Z,21.43
2018-01-21T12:25:09.089Z,19.53
2018-01-21T12:27:36.265Z,19.57
2018-01-21T12:30:02.699Z,19.37
2018-01-21T12:32:29.145Z,18.60
2018-01-21T12:34:55.953Z,19.87
2018-01-21T12:37:23.103Z,18.13
2018-01-21T12:39:49.674Z,18.47
2018-01-21T12:42:16.507Z,21.00
2018-01-21T12:44:44.294Z,20.47
2018-01-21T12:47:10.834Z,19.80
2018-01-21T12:49:37.576Z,20.33
2018-01-21T12:52:04.125Z,19.83
2018-01-21T12:54:31.067Z,20.40
2018-01-21T12:56:58.526Z,21.43
2018-01-21T12:59:26.088Z,18.33
2018-01-21T13:01:53.738Z,17.63
2018-01-21T13:04:21.297Z,18.27
2018-01-21T13:06:49.234Z,20.23
2018-01-21T13:09:15.742Z,22.30
2018-01-21T13:11:42.321Z,20.70
2018-01-21T13:14:08.754Z,21.83
2018-01-21T13:16:35.628Z,20.63
2018-01-21T13:19:02.808Z,19.53
2018-01-21T13:21:29.430Z,20.57
2018-01-21T13:23:57.834Z,21.57
2018-01-21T13:26:24.433Z,20.97
2018-01-21T13:28:51.976Z,21.63
2018-01-21T13:31:18.520Z,21.23
2018-01-21T13:33:45.757Z,20.20
2018-01-21T13:36:12.224Z,19.57
2018-01-21T13:38:39.459Z,20.53
2018-01-21T13:41:08.037Z,21.83
2018-01-21T13:43:34.625Z,20.37
2018-01-21T13:46:01.465Z,20.57
2018-01-21T13:48:28.406Z,20.00
2018-01-21T13:50:55.326Z,21.03
2018-01-21T13:53:23.548Z,18.13
2018-01-21T13:55:50.575Z,21.43
2018-01-21T13:58:17.409Z,22.30
2018-01-21T14:00:44.143Z,21.10
2018-01-21T14:03:12.146Z,20.87
2018-01-21T14:05:38.651Z,19.43
2018-01-21T14:08:05.865Z,20.37
2018-01-21T14:10:32.495Z,23.07
2018-01-21T14:12:58.980Z,20.57
2018-01-21T14:15:26.263Z,21.50
2018-01-21T14:17:53.111Z,23.77
2018-01-21T14:20:20.636Z,22.90
2018-01-21T14:22:48.599Z,24.67
2018-01-21T14:25:15.443Z,22.13
2018-01-21T14:27:42.443Z,21.07
2018-01-21T14:30:09.514Z,25.17
2018-01-21T14:32:36.665Z,22.47
2018-01-21T14:35:03.918Z,22.33
2018-01-21T14:37:32.088Z,23.13
2018-01-21T14:39:58.999Z,23.30
2018-01-21T14:42:25.795Z,21.70
2018-01-21T14:44:52.394Z,23.23
2018-01-21T14:47:18.955Z,22.57
2018-01-21T14:49:47.008Z,22.90
2018-01-21T14:52:13.914Z,25.40
2018-01-21T14:54:40.717Z,23.60
2018-01-21T14:57:07.964Z,25.90
2018-01-21T14:59:35.405Z,25.50
2018-01-21T15:02:02.489Z,25.00
2018-01-21T15:04:29.027Z,27.13
2018-01-21T15:06:56.943Z,27.43
2018-01-21T15:09:24.211Z,25.17
2018-01-21T15:11:51.737Z,26.77
2018-01-21T15:14:18.198Z,28.10
2018-01-21T15:16:45.670Z,27.53
2018-01-21T15:19:13.978Z,27.50
2018-01-21T15:21:40.356Z,29.03
2018-01-21T15:24:07.729Z,27.80
2018-01-21T15:26:34.282Z,29.57
2018-01-21T15:29:02.319Z,28.57
2018-01-21T15:31:28.821Z,30.20
2018-01-21T15:33:55.979Z,28.17
2018-01-21T15:36:22.826Z,30.73
2018-01-21T15:38:49.400Z,30.40
2018-01-21T15:41:16.381Z,34.43
2018-01-21T15:43:42.927Z,33.50
2018-01-21T15:46:09.495Z,34.10
2018-01-21T15:48:36.389Z,32.30
2018-01-21T15:51:02.939Z,30.07
2018-01-21T15:53:30.207Z,28.27
2018-01-21T15:55:57.404Z,35.10
2018-01-21T15:58:25.518Z,24.40
2018-01-21T16:00:52.836Z,31.70
2018-01-21T16:03:21.244Z,27.57
2018-01-21T16:05:48.300Z,28.50
2018-01-21T16:08:15.847Z,25.03
2018-01-21T16:10:43.080Z,28.73
2018-01-21T16:13:10.284Z,32.23
2018-01-21T16:15:37.541Z,40.17
2018-01-21T16:18:04.724Z,30.93
2018-01-21T16:20:32.426Z,30.30
2018-01-21T16:23:05.603Z,27.40
2018-01-21T16:25:32.772Z,23.80
2018-01-21T16:27:59.369Z,23.47
2018-01-21T16:30:27.009Z,29.40
2018-01-21T16:32:54.206Z,27.03
2018-01-21T16:35:20.825Z,32.23
2018-01-21T16:37:59.383Z,22.37
2018-01-21T16:40:27.693Z,33.93
2018-01-21T16:42:54.299Z,30.57
2018-01-21T16:45:21.960Z,33.23
2018-01-21T16:47:48.776Z,26.87
2018-01-21T16:50:17.006Z,29.83
2018-01-21T16:52:43.561Z,25.73
2018-01-21T16:55:10.319Z,32.13
2018-01-21T16:57:37.821Z,31.70
2018-01-21T17:00:09.163Z,29.00
2018-01-21T17:02:36.282Z,29.40
2018-01-21T17:05:03.939Z,33.03
2018-01-21T17:07:30.809Z,28.87
2018-01-21T17:09:58.353Z,31.73
2018-01-21T17:12:26.544Z,30.67
2018-01-21T17:14:53.122Z,31.50
2018-01-21T17:17:19.611Z,29.10
2018-01-21T17:19:46.837Z,31.17
2018-01-21T17:22:13.301Z,27.67
2018-01-21T17:24:39.955Z,28.10
2018-01-21T17:27:07.466Z,30.20
2018-01-21T17:29:33.873Z,25.97
2018-01-21T17:32:00.344Z,25.93
2018-01-21T17:34:27.347Z,31.80
2018-01-21T17:36:54.645Z,29.57
2018-01-21T17:39:21.321Z,24.10
2018-01-21T17:41:47.760Z,21.50
2018-01-21T17:44:16.669Z,37.17
2018-01-21T17:46:43.438Z,28.13
2018-01-21T17:49:09.873Z,25.90
2018-01-21T17:51:37.009Z,25.37
2018-01-21T17:54:04.639Z,25.47
2018-01-21T17:56:31.996Z,29.13
2018-01-21T17:58:59.840Z,29.77
2018-01-21T18:01:27.464Z,29.97
2018-01-21T18:03:53.950Z,31.57
2018-01-21T18:06:20.450Z,35.00
2018-01-21T18:08:47.097Z,28.70
2018-01-21T18:11:15.485Z,27.60
2018-01-21T18:13:42.858Z,33.80
2018-01-21T18:16:09.459Z,29.80
2018-01-21T18:18:37.703Z,29.77
2018-01-21T18:21:04.223Z,31.07
2018-01-21T18:23:31.822Z,28.70
2018-01-21T18:25:58.467Z,30.13
2018-01-21T18:28:26.044Z,29.60
2018-01-21T18:30:57.673Z,28.73
2018-01-21T18:33:25.744Z,29.60
2018-01-21T18:35:53.625Z,27.80
2018-01-21T18:38:24.074Z,30.00
2018-01-21T18:40:51.576Z,32.70
2018-01-21T18:43:18.022Z,29.10
2018-01-21T18:45:44.474Z,31.00
2018-01-21T18:48:11.268Z,27.90
2018-01-21T18:53:13.195Z,24.33
2018-01-21T18:55:41.093Z,23.90
2018-01-21T18:58:09.320Z,25.37
2018-01-21T19:00:36.070Z,26.50
2018-01-21T19:03:07.647Z,27.70
2018-01-21T19:05:36.134Z,30.40
2018-01-21T19:08:03.344Z,28.10
2018-01-21T19:10:29.815Z,25.40
2018-01-21T19:12:58.202Z,25.97
2018-01-21T19:15:25.419Z,30.67
2018-01-21T19:17:53.684Z,30.57
2018-01-21T19:20:21.046Z,27.33
2018-01-21T19:22:47.585Z,28.10
2018-01-21T19:25:14.601Z,27.63
2018-01-21T19:27:42.907Z,26.63
2018-01-21T19:30:10.231Z,25.17
2018-01-21T19:32:37.609Z,27.20
2018-01-21T19:35:04.275Z,28.50
2018-01-21T19:37:31.214Z,26.27
2018-01-21T19:40:20.072Z,24.27
2018-01-21T19:42:47.254Z,21.93
2018-01-21T19:45:13.904Z,23.50
2018-01-21T19:47:40.464Z,19.13
2018-01-21T19:50:06.964Z,22.70
2018-01-21T19:52:33.489Z,18.87
2018-01-21T19:55:00.783Z,24.40
2018-01-21T19:57:27.392Z,21.80
2018-01-21T19:59:53.985Z,19.83
2018-01-21T20:02:21.484Z,20.50
2018-01-21T20:04:50.377Z,16.47
2018-01-21T20:07:17.908Z,15.63
2018-01-21T20:09:44.594Z,15.47
2018-01-21T20:12:12.357Z,15.30
2018-01-21T20:14:38.984Z,19.03
2018-01-21T20:17:05.533Z,17.13
2018-01-21T20:19:31.977Z,16.97
2018-01-21T20:21:59.198Z,16.03
2018-01-21T20:24:25.678Z,18.00
2018-01-21T20:26:52.845Z,15.23
2018-01-21T20:29:20.620Z,17.60
2018-01-21T20:31:47.066Z,16.50
2018-01-21T20:34:13.565Z,13.70
2018-01-21T20:36:40.344Z,12.43
2018-01-21T20:39:07.145Z,14.53
2018-01-21T20:41:33.579Z,13.30
2018-01-21T20:44:00.066Z,8.77
2018-01-21T20:46:26.660Z,17.60
2018-01-21T20:48:54.174Z,14.50
2018-01-21T20:51:26.510Z,15.37
2018-01-21T20:53:59.503Z,13.33
2018-01-21T20:56:26.028Z,15.30
2018-01-21T20:58:53.401Z,17.07
2018-01-21T21:01:21.053Z,14.20
2018-01-21T21:03:47.659Z,17.97
2018-01-21T21:06:14.125Z,14.90
2018-01-21T21:08:41.447Z,17.27
2018-01-21T21:11:08.523Z,13.33
2018-01-21T21:13:36.086Z,13.40
2018-01-21T21:16:02.802Z,14.90
2018-01-21T21:18:30.004Z,14.20
2018-01-21T21:20:57.175Z,16.17
2018-01-21T21:23:24.082Z,11.47
2018-01-21T21:25:51.756Z,9.90
2018-01-21T21:28:18.227Z,18.10
2018-01-21T21:30:45.288Z,16.90
2018-01-21T21:33:12.746Z,13.70
2018-01-21T21:35:40.317Z,13.17
2018-01-21T21:38:08.320Z,13.23
2018-01-21T21:40:34.878Z,16.20
2018-01-21T21:43:01.670Z,16.27
2018-01-21T21:45:28.225Z,19.87
2018-01-21T21:47:55.420Z,17.43
2018-01-21T21:50:21.820Z,17.20
2018-01-21T21:52:48.457Z,17.97
2018-01-21T21:55:15.401Z,15.00
2018-01-21T21:57:42.004Z,17.07
2018-01-21T22:00:09.516Z,13.13
2018-01-21T22:02:36.632Z,17.53
2018-01-21T22:05:03.837Z,17.80
2018-01-21T22:07:30.340Z,18.10
2018-01-21T22:09:57.667Z,20.03
2018-01-21T22:12:24.822Z,18.57
2018-01-21T22:14:51.615Z,19.10
2018-01-21T22:17:18.008Z,19.50
2018-01-21T22:19:45.356Z,18.00
2018-01-21T22:22:11.926Z,21.70
2018-01-21T22:24:39.080Z,14.50
2018-01-21T22:27:05.646Z,22.00
2018-01-21T22:29:32.809Z,22.13
2018-01-21T22:31:59.220Z,20.97
2018-01-21T22:34:25.661Z,20.80
2018-01-21T22:36:52.241Z,22.40
2018-01-21T22:39:18.801Z,20.37
2018-01-21T22:41:45.199Z,19.90
2018-01-21T22:44:11.683Z,19.53
2018-01-21T22:46:38.146Z,16.37
2018-01-21T22:49:04.633Z,20.87
2018-01-21T22:51:31.569Z,14.17
2018-01-21T22:53:58.359Z,22.70
2018-01-21T22:56:24.796Z,18.27
2018-01-21T22:58:51.629Z,20.37
2018-01-21T23:01:18.082Z,21.67
2018-01-21T23:03:44.582Z,21.43
2018-01-21T23:06:11.082Z,23.50
2018-01-21T23:08:37.618Z,20.00
2018-01-21T23:11:04.817Z,22.80
2018-01-21T23:13:32.159Z,22.47
2018-01-21T23:15:58.604Z,23.17
2018-01-21T23:18:25.045Z,23.67
2018-01-21T23:21:04.275Z,23.43
2018-01-21T23:23:30.684Z,23.60
2018-01-21T23:25:57.489Z,23.03
2018-01-21T23:28:23.887Z,25.07
2018-01-21T23:30:50.258Z,25.97
2018-01-21T23:33:17.039Z,24.93
2018-01-21T23:35:43.894Z,22.60
2018-01-21T23:38:10.344Z,24.00
2018-01-21T23:40:38.845Z,22.13
2018-01-21T23:43:05.390Z,21.83
2018-01-21T23:45:31.813Z,23.13
2018-01-21T23:47:58.216Z,23.17
2018-01-21T23:50:24.695Z,19.47
2018-01-21T23:52:51.643Z,19.40
2018-01-21T23:55:18.945Z,21.70
2018-01-21T23:57:45.806Z,21.67
